Time;durP1;ratioP1;P1;durP2;ratioP2;P2;SDS_P1;SDS_P2;PMS_P1;PMS_P2;Temp;Humidity;BMP_temperature;BMP_pressure;BME280_temperature;BME280_humidity;BME280_pressure;Samples;Min_cycle;Max_cycle;Signal;HPM_P1;HPM_P2
2023/09/01 00:00:41;;;;;;;0.00;0.00;;;15.60;99.90;;;;;;5052497;28;20250;-60
2023/09/01 00:03:07;;;;;;;0.00;0.00;;;15.60;99.90;;;;;;5052334;28;20181;-60
2023/09/01 00:05:33;;;;;;;0.00;0.00;;;15.60;99.90;;;;;;5052617;28;20272;-60
2023/09/01 00:07:59;;;;;;;0.00;0.00;;;15.50;99.90;;;;;;5052048;28;20279;-60
2023/09/01 00:10:24;;;;;;;0.00;0.00;;;15.50;99.90;;;;;;5050895;28;20290;-60
2023/09/01 00:12:50;;;;;;;0.00;0.00;;;15.50;99.90;;;;;;5051816;28;20213;-60
2023/09/01 00:15:15;;;;;;;0.25;0.25;;;15.50;99.90;;;;;;5052298;28;20189;-60
2023/09/01 00:17:41;;;;;;;0.00;0.00;;;15.40;99.90;;;;;;5050197;28;20272;-60
2023/09/01 00:20:07;;;;;;;0.00;0.00;;;15.40;99.90;;;;;;5052238;28;20228;-61
2023/09/01 00:22:33;;;;;;;0.00;0.00;;;15.40;99.90;;;;;;5050822;28;20173;-60
2023/09/01 00:24:58;;;;;;;0.00;0.00;;;15.40;99.90;;;;;;5051883;28;20710;-60
2023/09/01 00:27:24;;;;;;;0.00;0.00;;;15.40;99.90;;;;;;5052097;28;20568;-60
2023/09/01 00:29:49;;;;;;;0.00;0.00;;;15.30;99.90;;;;;;5050565;28;20215;-60
2023/09/01 00:32:15;;;;;;;0.00;0.00;;;15.30;99.90;;;;;;5051955;28;20209;-60
2023/09/01 00:34:40;;;;;;;0.00;0.00;;;15.30;99.90;;;;;;5051850;28;20182;-61
2023/09/01 00:37:06;;;;;;;0.00;0.00;;;15.40;99.90;;;;;;5051769;28;20173;-61
2023/09/01 00:39:31;;;;;;;0.00;0.00;;;15.40;99.90;;;;;;5052105;28;20569;-61
2023/09/01 00:41:57;;;;;;;0.00;0.00;;;15.40;99.90;;;;;;5051522;28;20174;-61
2023/09/01 00:44:22;;;;;;;0.00;0.00;;;15.40;99.90;;;;;;5051712;28;20169;-61
2023/09/01 00:46:49;;;;;;;0.00;0.00;;;15.50;99.90;;;;;;5051964;28;20173;-61
2023/09/01 00:49:17;;;;;;;0.00;0.00;;;15.50;99.90;;;;;;5051584;28;20573;-60
2023/09/01 00:51:46;;;;;;;0.00;0.00;;;15.40;99.90;;;;;;5051908;28;20181;-61
2023/09/01 00:54:13;;;;;;;0.00;0.00;;;15.40;99.90;;;;;;5051190;28;20213;-61
2023/09/01 00:56:39;;;;;;;0.08;0.08;;;15.50;99.90;;;;;;5051741;28;20192;-61
2023/09/01 00:59:05;;;;;;;0.00;0.00;;;15.50;99.90;;;;;;5051559;28;20194;-61
2023/09/01 01:01:31;;;;;;;0.00;0.00;;;15.40;99.90;;;;;;5051326;28;20181;-61
2023/09/01 01:03:57;;;;;;;0.00;0.00;;;15.40;99.90;;;;;;5050998;28;20209;-60
2023/09/01 01:06:34;;;;;;;0.00;0.00;;;15.30;99.90;;;;;;5051183;28;20240;-61
2023/09/01 01:09:26;;;;;;;0.00;0.00;;;15.20;99.90;;;;;;5051227;28;20185;-61
2023/09/01 01:12:05;;;;;;;0.00;0.00;;;15.20;99.90;;;;;;5051171;28;20177;-61
2023/09/01 01:14:40;;;;;;;0.00;0.00;;;15.10;99.90;;;;;;5051203;28;20185;-61
2023/09/01 01:17:06;;;;;;;0.00;0.00;;;15.10;99.90;;;;;;5051299;28;20176;-60
2023/09/01 01:19:52;;;;;;;0.00;0.00;;;15.00;99.90;;;;;;5051344;28;20178;-60
2023/09/01 01:22:29;;;;;;;0.00;0.00;;;15.00;99.90;;;;;;5051026;28;20173;-60
2023/09/01 01:24:55;;;;;;;0.00;0.00;;;15.00;99.90;;;;;;5051082;28;20177;-60
2023/09/01 01:27:20;;;;;;;0.00;0.00;;;15.00;99.90;;;;;;5050630;28;20184;-61
2023/09/01 01:29:47;;;;;;;0.00;0.00;;;15.00;99.90;;;;;;5049787;28;20663;-61
2023/09/01 01:32:14;;;;;;;0.00;0.00;;;15.00;99.90;;;;;;5050673;28;20315;-61
2023/09/01 01:34:45;;;;;;;0.00;0.00;;;15.00;99.90;;;;;;5050977;28;20162;-60
2023/09/01 01:37:20;;;;;;;0.00;0.00;;;15.10;99.90;;;;;;5050649;28;20705;-60
2023/09/01 01:39:48;;;;;;;0.00;0.00;;;15.10;99.90;;;;;;5051208;28;20180;-60
2023/09/01 01:42:17;;;;;;;0.00;0.00;;;15.10;99.90;;;;;;5050894;28;20175;-60
2023/09/01 01:44:46;;;;;;;0.00;0.00;;;15.10;99.90;;;;;;5050416;28;20217;-60
2023/09/01 01:47:12;;;;;;;0.00;0.00;;;15.10;99.90;;;;;;5050392;28;20698;-60
2023/09/01 01:49:38;;;;;;;0.05;0.05;;;15.20;99.90;;;;;;5050558;28;20196;-60
2023/09/01 01:52:04;;;;;;;0.00;0.00;;;15.20;99.90;;;;;;5050219;28;20170;-60
2023/09/01 01:54:31;;;;;;;0.00;0.00;;;15.10;99.90;;;;;;5050469;28;20181;-60
2023/09/01 01:56:57;;;;;;;0.00;0.00;;;15.10;99.90;;;;;;5050544;28;20514;-60
2023/09/01 01:59:22;;;;;;;0.00;0.00;;;15.10;99.90;;;;;;5049928;28;20243;-60
2023/09/01 02:01:48;;;;;;;0.03;0.03;;;15.10;99.90;;;;;;5049627;28;20216;-60
2023/09/01 02:04:13;;;;;;;0.00;0.00;;;15.10;99.90;;;;;;5049493;28;20173;-60
2023/09/01 02:06:39;;;;;;;0.00;0.00;;;15.10;99.90;;;;;;5050213;28;20189;-60
2023/09/01 02:09:09;;;;;;;0.13;0.13;;;15.10;99.90;;;;;;5050038;28;20177;-61
2023/09/01 02:11:38;;;;;;;0.00;0.00;;;15.10;99.90;;;;;;5050299;28;20520;-60
2023/09/01 02:14:04;;;;;;;0.00;0.00;;;15.10;99.90;;;;;;5049909;28;20209;-61
2023/09/01 02:16:30;;;;;;;0.00;0.00;;;15.20;99.90;;;;;;5050254;28;20305;-60
2023/09/01 02:18:56;;;;;;;0.00;0.00;;;15.20;99.90;;;;;;5050251;28;20737;-60
2023/09/01 02:21:22;;;;;;;0.00;0.00;;;15.20;99.90;;;;;;5050271;28;20644;-60
2023/09/01 02:23:48;;;;;;;0.00;0.00;;;15.20;99.90;;;;;;5049993;28;20185;-60
2023/09/01 02:26:21;;;;;;;0.00;0.00;;;15.20;99.90;;;;;;5049395;28;20220;-60
2023/09/01 02:28:47;;;;;;;0.03;0.03;;;15.20;99.90;;;;;;5050083;28;20641;-61
2023/09/01 02:31:14;;;;;;;0.00;0.00;;;15.20;99.90;;;;;;5049328;28;20221;-61
2023/09/01 02:33:39;;;;;;;0.00;0.00;;;15.20;99.90;;;;;;5049996;28;20263;-61
2023/09/01 02:36:24;;;;;;;0.00;0.00;;;15.20;99.90;;;;;;5049393;28;20181;-61
2023/09/01 02:38:51;;;;;;;0.00;0.00;;;15.30;99.90;;;;;;5040950;28;20177;-61
2023/09/01 02:41:16;;;;;;;0.00;0.00;;;15.30;99.90;;;;;;5053220;28;20227;-61
2023/09/01 02:43:42;;;;;;;0.00;0.00;;;15.30;99.90;;;;;;5053626;28;20173;-61
2023/09/01 02:46:07;;;;;;;0.00;0.00;;;15.40;99.90;;;;;;5052215;28;20671;-61
2023/09/01 02:48:33;;;;;;;0.00;0.00;;;15.40;99.90;;;;;;5053114;28;20185;-61
2023/09/01 02:50:58;;;;;;;0.00;0.00;;;15.40;99.90;;;;;;5053808;28;20217;-61
2023/09/01 02:53:24;;;;;;;0.00;0.00;;;15.50;99.90;;;;;;5053350;28;20614;-61
2023/09/01 02:55:50;;;;;;;0.00;0.00;;;15.50;99.90;;;;;;5053814;28;20751;-60
2023/09/01 02:58:16;;;;;;;0.00;0.00;;;15.50;99.90;;;;;;5053162;28;20189;-61
2023/09/01 03:00:44;;;;;;;0.00;0.00;;;15.50;99.90;;;;;;5053126;28;20170;-61
2023/09/01 03:03:09;;;;;;;0.00;0.00;;;15.50;99.90;;;;;;5052617;28;20173;-61
2023/09/01 03:05:35;;;;;;;0.00;0.00;;;15.50;99.90;;;;;;5053591;28;20217;-61
2023/09/01 03:08:01;;;;;;;0.00;0.00;;;15.60;99.90;;;;;;5053499;28;20215;-61
2023/09/01 03:10:27;;;;;;;0.00;0.00;;;15.60;99.90;;;;;;5051650;28;20256;-61
2023/09/01 03:12:52;;;;;;;0.00;0.00;;;15.60;99.90;;;;;;5053147;28;20367;-61
2023/09/01 03:15:18;;;;;;;0.00;0.00;;;15.60;99.90;;;;;;5053103;28;20189;-61
2023/09/01 03:17:44;;;;;;;0.00;0.00;;;15.60;99.90;;;;;;5053149;28;20264;-61
2023/09/01 03:20:12;;;;;;;0.00;0.00;;;15.60;99.90;;;;;;5053265;28;20189;-61
2023/09/01 03:22:38;;;;;;;0.08;0.08;;;15.60;99.90;;;;;;5053370;28;20821;-60
2023/09/01 03:25:09;;;;;;;0.00;0.00;;;15.60;99.90;;;;;;5053094;28;20216;-61
2023/09/01 03:27:38;;;;;;;0.00;0.00;;;15.60;99.90;;;;;;5053624;28;20644;-61
2023/09/01 03:30:04;;;;;;;0.00;0.00;;;15.60;99.90;;;;;;5058954;28;20257;-61
2023/09/01 03:32:30;;;;;;;0.00;0.00;;;15.60;99.90;;;;;;5053196;28;20213;-61
2023/09/01 03:34:55;;;;;;;0.00;0.00;;;15.60;99.90;;;;;;5053354;28;20251;-61
2023/09/01 03:37:22;;;;;;;0.00;0.00;;;15.60;99.90;;;;;;5053548;28;20304;-61
2023/09/01 03:39:48;;;;;;;0.00;0.00;;;15.60;99.90;;;;;;5051768;28;20189;-61
2023/09/01 03:42:13;;;;;;;0.00;0.00;;;15.60;99.90;;;;;;5053274;28;20215;-61
2023/09/01 03:44:39;;;;;;;0.00;0.00;;;15.70;99.90;;;;;;5053106;28;20539;-62
2023/09/01 03:47:05;;;;;;;0.00;0.00;;;15.70;99.90;;;;;;5052579;28;20214;-61
2023/09/01 03:49:31;;;;;;;0.00;0.00;;;15.70;99.90;;;;;;5052002;28;20181;-59
2023/09/01 03:51:56;;;;;;;0.00;0.00;;;15.70;99.90;;;;;;5050990;28;20178;-61
2023/09/01 03:54:22;;;;;;;0.00;0.00;;;15.70;99.90;;;;;;5052808;28;20226;-61
2023/09/01 03:56:47;;;;;;;0.00;0.00;;;15.70;99.90;;;;;;5052842;28;20280;-59
2023/09/01 03:59:13;;;;;;;0.00;0.00;;;15.70;99.90;;;;;;5036843;28;20192;-60
2023/09/01 04:01:38;;;;;;;0.00;0.00;;;15.70;99.90;;;;;;5052844;28;20182;-60
2023/09/01 04:04:06;;;;;;;0.00;0.00;;;15.70;99.90;;;;;;5052607;28;20184;-60
2023/09/01 04:06:31;;;;;;;0.00;0.00;;;15.70;99.90;;;;;;5051879;28;20829;-60
2023/09/01 04:08:57;;;;;;;0.00;0.00;;;15.80;99.90;;;;;;5052496;28;20174;-59
2023/09/01 04:11:23;;;;;;;0.00;0.00;;;15.80;99.90;;;;;;5051881;28;20675;-58
2023/09/01 04:13:48;;;;;;;0.00;0.00;;;15.80;99.90;;;;;;5049932;28;20209;-59
2023/09/01 04:16:14;;;;;;;0.00;0.00;;;15.80;99.90;;;;;;5052266;28;20173;-59
2023/09/01 04:18:39;;;;;;;0.10;0.10;;;15.80;99.90;;;;;;5051667;28;20185;-58
2023/09/01 04:21:05;;;;;;;0.00;0.00;;;15.80;99.90;;;;;;5052492;28;20247;-59
2023/09/01 04:23:31;;;;;;;0.00;0.00;;;15.80;99.90;;;;;;5052616;28;20295;-59
2023/09/01 04:25:57;;;;;;;0.00;0.00;;;15.90;99.90;;;;;;5052611;28;20256;-59
2023/09/01 04:28:23;;;;;;;0.00;0.00;;;15.90;99.90;;;;;;5051678;28;20260;-58
2023/09/01 04:30:49;;;;;;;0.00;0.00;;;15.90;99.90;;;;;;5052233;28;20228;-58
2023/09/01 04:33:15;;;;;;;0.00;0.00;;;15.90;99.90;;;;;;5051913;28;20251;-59
2023/09/01 04:35:42;;;;;;;0.00;0.00;;;16.00;99.90;;;;;;5051647;28;20207;-59
2023/09/01 04:38:08;;;;;;;0.00;0.00;;;16.00;99.90;;;;;;5052438;28;20553;-58
2023/09/01 04:40:34;;;;;;;0.00;0.00;;;16.00;99.90;;;;;;5051917;28;20178;-59
2023/09/01 04:42:59;;;;;;;0.00;0.00;;;16.00;99.90;;;;;;5052165;28;20174;-59
2023/09/01 04:45:25;;;;;;;0.00;0.00;;;16.00;99.90;;;;;;5052302;28;20648;-59
2023/09/01 04:47:51;;;;;;;0.00;0.00;;;16.00;99.90;;;;;;5052288;28;20169;-59
2023/09/01 04:50:17;;;;;;;0.00;0.00;;;16.00;99.90;;;;;;5052144;28;20186;-59
2023/09/01 04:52:42;;;;;;;0.00;0.00;;;16.10;99.90;;;;;;5052208;28;20206;-59
2023/09/01 04:55:08;;;;;;;0.00;0.00;;;16.10;99.90;;;;;;5052045;28;20181;-59
2023/09/01 04:57:35;;;;;;;0.00;0.00;;;16.10;99.90;;;;;;5052182;28;20189;-59
2023/09/01 05:00:01;;;;;;;0.00;0.00;;;16.10;99.90;;;;;;5052129;28;20188;-59
2023/09/01 05:02:27;;;;;;;0.00;0.00;;;16.10;99.90;;;;;;5051017;28;20196;-59
2023/09/01 05:04:52;;;;;;;0.00;0.00;;;16.10;99.90;;;;;;5051455;28;20185;-59
2023/09/01 05:07:18;;;;;;;0.00;0.00;;;16.20;99.90;;;;;;5051771;28;20671;-59
2023/09/01 05:09:44;;;;;;;0.00;0.00;;;16.20;99.90;;;;;;5051587;28;20189;-59
2023/09/01 05:12:09;;;;;;;0.00;0.00;;;16.20;99.90;;;;;;5051279;28;20158;-59
2023/09/01 05:14:35;;;;;;;0.00;0.00;;;16.20;99.90;;;;;;5051551;28;20212;-59
2023/09/01 05:17:00;;;;;;;0.00;0.00;;;16.30;99.90;;;;;;5051576;28;20224;-59
2023/09/01 05:19:26;;;;;;;0.00;0.00;;;16.30;99.90;;;;;;5051187;28;20239;-59
2023/09/01 05:21:51;;;;;;;0.00;0.00;;;16.30;99.90;;;;;;5051600;28;20224;-59
2023/09/01 05:24:17;;;;;;;0.00;0.00;;;16.40;99.90;;;;;;5051390;28;20208;-59
2023/09/01 05:26:43;;;;;;;0.00;0.00;;;16.40;99.90;;;;;;5051276;28;20224;-59
2023/09/01 05:29:08;;;;;;;0.00;0.00;;;16.40;99.90;;;;;;5051346;28;20212;-58
2023/09/01 05:31:34;;;;;;;0.00;0.00;;;16.40;99.90;;;;;;5051051;28;20648;-59
2023/09/01 05:33:59;;;;;;;0.00;0.00;;;16.40;99.90;;;;;;5051132;28;20637;-59
2023/09/01 05:36:26;;;;;;;0.00;0.00;;;16.50;99.90;;;;;;5051008;28;20192;-59
2023/09/01 05:38:51;;;;;;;0.00;0.00;;;16.50;99.90;;;;;;5051219;28;20197;-59
2023/09/01 05:41:17;;;;;;;0.10;0.10;;;16.50;99.90;;;;;;5050981;28;20648;-59
2023/09/01 05:43:42;;;;;;;0.00;0.00;;;16.50;99.90;;;;;;5051029;28;20256;-59
2023/09/01 05:46:08;;;;;;;0.00;0.00;;;16.60;99.90;;;;;;5051022;28;20173;-59
2023/09/01 05:48:36;;;;;;;0.00;0.00;;;16.60;99.90;;;;;;5051008;28;20212;-58
2023/09/01 05:51:01;;;;;;;0.00;0.00;;;16.60;99.90;;;;;;5050913;28;20178;-59
2023/09/01 05:53:27;;;;;;;0.00;0.00;;;16.70;99.90;;;;;;5050792;28;20346;-59
2023/09/01 05:55:53;;;;;;;0.00;0.00;;;16.70;99.90;;;;;;5050953;28;20223;-59
2023/09/01 05:58:19;;;;;;;0.00;0.00;;;16.70;99.90;;;;;;5050851;28;20264;-59
2023/09/01 06:00:44;;;;;;;0.00;0.00;;;16.70;99.90;;;;;;5050439;28;20704;-59
2023/09/01 06:03:10;;;;;;;0.00;0.00;;;16.70;99.90;;;;;;5050722;28;20180;-59
2023/09/01 06:05:36;;;;;;;0.00;0.00;;;16.70;99.90;;;;;;5050812;28;20546;-59
2023/09/01 06:08:02;;;;;;;0.00;0.00;;;16.70;99.90;;;;;;5050959;28;20169;-59
2023/09/01 06:10:28;;;;;;;0.00;0.00;;;16.70;99.90;;;;;;5050525;28;20176;-59
2023/09/01 06:12:54;;;;;;;0.00;0.00;;;16.80;99.90;;;;;;5050742;28;20217;-59
2023/09/01 06:15:19;;;;;;;0.00;0.00;;;16.80;99.90;;;;;;5052597;28;20196;-59
2023/09/01 06:17:45;;;;;;;0.00;0.00;;;16.70;99.90;;;;;;5054797;28;20259;-58
2023/09/01 06:20:11;;;;;;;0.00;0.00;;;16.80;99.90;;;;;;5054947;28;20658;-59
2023/09/01 06:22:36;;;;;;;0.00;0.00;;;16.80;99.90;;;;;;5054771;28;20253;-59
2023/09/01 06:25:03;;;;;;;0.00;0.00;;;16.80;99.90;;;;;;5054852;28;21199;-59
2023/09/01 06:27:29;;;;;;;0.10;0.10;;;16.80;99.90;;;;;;5054660;28;20536;-59
2023/09/01 06:29:56;;;;;;;0.00;0.00;;;16.90;99.90;;;;;;5054596;28;20211;-59
2023/09/01 06:32:23;;;;;;;0.00;0.00;;;16.90;99.90;;;;;;5054458;28;20583;-59
2023/09/01 06:34:49;;;;;;;0.00;0.00;;;17.00;99.90;;;;;;5054604;28;20771;-59
2023/09/01 06:37:14;;;;;;;0.82;0.43;;;17.00;99.90;;;;;;5054484;28;20264;-59
2023/09/01 06:39:40;;;;;;;0.00;0.00;;;17.00;99.90;;;;;;5054395;28;20174;-59
2023/09/01 06:42:06;;;;;;;0.00;0.00;;;17.00;99.90;;;;;;5054439;28;20174;-59
2023/09/01 06:44:32;;;;;;;0.00;0.00;;;17.10;99.90;;;;;;5054420;28;20641;-58
2023/09/01 06:46:58;;;;;;;0.00;0.00;;;17.10;99.90;;;;;;5054353;28;20268;-59
2023/09/01 06:49:23;;;;;;;0.00;0.00;;;17.10;99.90;;;;;;5054252;28;20182;-59
2023/09/01 06:51:49;;;;;;;0.00;0.00;;;17.10;99.90;;;;;;5052985;28;20177;-59
2023/09/01 06:54:14;;;;;;;0.00;0.00;;;17.20;99.90;;;;;;5054121;28;20209;-60
2023/09/01 06:56:40;;;;;;;0.00;0.00;;;17.20;99.90;;;;;;5054147;28;20546;-60
2023/09/01 06:59:05;;;;;;;0.00;0.00;;;17.30;99.90;;;;;;5054214;28;20197;-60
2023/09/01 07:01:31;;;;;;;0.00;0.00;;;17.30;99.90;;;;;;5054033;28;20197;-59
2023/09/01 07:03:56;;;;;;;0.00;0.00;;;17.40;99.90;;;;;;5054166;28;20534;-60
2023/09/01 07:06:22;;;;;;;0.00;0.00;;;17.50;99.90;;;;;;5053792;28;20679;-60
2023/09/01 07:08:47;;;;;;;0.00;0.00;;;17.60;99.90;;;;;;5054018;28;20217;-59
2023/09/01 07:11:14;;;;;;;0.00;0.00;;;17.70;99.90;;;;;;5054005;28;20177;-60
2023/09/01 07:13:40;;;;;;;0.00;0.00;;;17.80;99.90;;;;;;5054154;28;20224;-59
2023/09/01 07:16:06;;;;;;;0.00;0.00;;;17.90;99.90;;;;;;5054084;28;20178;-60
2023/09/01 07:18:33;;;;;;;0.00;0.00;;;17.90;99.90;;;;;;5054318;28;20235;-60
2023/09/01 07:20:59;;;;;;;0.00;0.00;;;18.00;99.90;;;;;;5053955;28;20226;-59
2023/09/01 07:23:25;;;;;;;0.00;0.00;;;18.20;99.90;;;;;;5054013;28;20185;-60
2023/09/01 07:25:53;;;;;;;0.00;0.00;;;18.30;99.90;;;;;;5053983;28;20181;-60
2023/09/01 07:28:19;;;;;;;0.00;0.00;;;18.50;99.90;;;;;;5053826;28;20185;-59
2023/09/01 07:30:44;;;;;;;0.00;0.00;;;18.60;99.90;;;;;;5053794;28;20590;-60
2023/09/01 07:33:10;;;;;;;0.00;0.00;;;18.60;99.90;;;;;;5053887;28;20235;-60
2023/09/01 07:35:35;;;;;;;0.00;0.00;;;18.60;99.90;;;;;;5053735;28;20185;-60
2023/09/01 07:38:03;;;;;;;0.00;0.00;;;18.60;99.90;;;;;;5053678;28;20177;-60
2023/09/01 07:40:29;;;;;;;0.00;0.00;;;18.70;99.90;;;;;;5053857;28;20169;-60
2023/09/01 07:42:54;;;;;;;0.00;0.00;;;18.70;99.90;;;;;;5053794;28;20182;-60
2023/09/01 07:45:20;;;;;;;0.00;0.00;;;18.70;99.90;;;;;;5053617;28;20223;-60
2023/09/01 07:47:45;;;;;;;0.00;0.00;;;18.70;99.90;;;;;;5053615;28;20186;-60
2023/09/01 07:50:11;;;;;;;0.00;0.00;;;18.80;99.90;;;;;;5053517;28;20265;-60
2023/09/01 07:52:37;;;;;;;0.00;0.00;;;18.80;99.90;;;;;;5053521;28;20209;-60
2023/09/01 07:55:05;;;;;;;0.00;0.00;;;18.70;99.90;;;;;;5053357;28;20169;-60
2023/09/01 07:57:31;;;;;;;0.00;0.00;;;18.70;99.90;;;;;;5053425;28;20174;-60
2023/09/01 07:59:56;;;;;;;0.00;0.00;;;18.70;99.90;;;;;;5053274;28;20705;-60
2023/09/01 08:02:22;;;;;;;0.00;0.00;;;18.70;99.90;;;;;;5053158;28;20177;-60
2023/09/01 08:04:47;;;;;;;0.00;0.00;;;18.80;99.90;;;;;;5053291;28;20181;-60
2023/09/01 08:07:13;;;;;;;0.00;0.00;;;18.90;99.90;;;;;;5053146;28;20178;-60
2023/09/01 08:09:38;;;;;;;0.00;0.00;;;19.10;99.90;;;;;;5051823;28;20532;-60
2023/09/01 08:12:04;;;;;;;0.00;0.00;;;19.20;99.90;;;;;;5051861;28;20192;-60
2023/09/01 08:14:29;;;;;;;0.00;0.00;;;19.30;99.90;;;;;;5053109;28;20219;-60
2023/09/01 08:16:55;;;;;;;0.00;0.00;;;19.50;99.90;;;;;;5053088;28;20174;-60
2023/09/01 08:19:21;;;;;;;0.00;0.00;;;19.80;99.90;;;;;;5052796;28;20182;-60
2023/09/01 08:21:46;;;;;;;0.00;0.00;;;20.20;99.90;;;;;;5052936;28;20177;-60
2023/09/01 08:24:12;;;;;;;0.00;0.00;;;20.30;99.90;;;;;;5052799;28;20287;-60
2023/09/01 08:26:37;;;;;;;0.00;0.00;;;20.30;99.90;;;;;;5052853;28;20292;-59
2023/09/01 08:29:04;;;;;;;0.00;0.00;;;20.30;99.90;;;;;;5052809;28;20178;-60
2023/09/01 08:31:32;;;;;;;0.00;0.00;;;20.30;99.90;;;;;;5052600;28;20233;-60
2023/09/01 08:33:57;;;;;;;0.00;0.00;;;20.30;99.90;;;;;;5052638;28;20388;-60
2023/09/01 08:36:23;;;;;;;0.00;0.00;;;20.40;99.90;;;;;;5052614;28;20201;-60
2023/09/01 08:38:48;;;;;;;0.00;0.00;;;20.50;99.90;;;;;;5051974;28;20508;-60
2023/09/01 08:41:14;;;;;;;0.00;0.00;;;20.50;99.90;;;;;;5052420;28;20540;-60
2023/09/01 08:43:39;;;;;;;0.00;0.00;;;20.50;99.90;;;;;;5052418;28;20683;-60
2023/09/01 08:46:07;;;;;;;0.00;0.00;;;20.70;99.90;;;;;;5052423;28;20170;-60
2023/09/01 08:48:33;;;;;;;0.00;0.00;;;21.00;99.90;;;;;;5052389;28;20186;-60
2023/09/01 08:51:00;;;;;;;0.00;0.00;;;21.50;99.90;;;;;;5051016;28;20273;-60
2023/09/01 08:53:26;;;;;;;0.00;0.00;;;22.20;99.90;;;;;;5052088;28;20255;-60
2023/09/01 08:55:55;;;;;;;0.15;0.15;;;22.70;99.90;;;;;;5052225;28;20288;-60
2023/09/01 08:58:21;;;;;;;0.00;0.00;;;22.80;99.90;;;;;;5051899;28;20659;-60
2023/09/01 09:00:48;;;;;;;0.00;0.00;;;23.00;99.90;;;;;;5052089;28;20265;-60
2023/09/01 09:03:14;;;;;;;0.00;0.00;;;23.10;99.90;;;;;;5051992;28;20182;-60
2023/09/01 09:05:39;;;;;;;0.00;0.00;;;23.30;99.90;;;;;;5051929;28;20166;-60
2023/09/01 09:08:08;;;;;;;0.00;0.00;;;23.40;99.90;;;;;;5051958;28;20227;-60
2023/09/01 09:10:47;;;;;;;0.00;0.00;;;23.80;99.90;;;;;;5052097;28;20565;-60
2023/09/01 09:13:30;;;;;;;0.00;0.00;;;24.10;99.90;;;;;;5051796;28;20217;-58
2023/09/01 09:16:14;;;;;;;0.00;0.00;;;23.70;99.90;;;;;;5051902;28;20181;-58
2023/09/01 09:18:44;;;;;;;0.00;0.00;;;23.40;99.90;;;;;;5051702;28;20264;-58
2023/09/01 09:21:22;;;;;;;0.00;0.00;;;23.10;99.90;;;;;;5051693;28;20165;-58
2023/09/01 09:23:48;;;;;;;0.00;0.00;;;22.80;99.90;;;;;;5051799;28;20215;-58
2023/09/01 09:26:13;;;;;;;0.00;0.00;;;22.60;99.90;;;;;;5051617;28;20261;-59
2023/09/01 09:28:39;;;;;;;0.00;0.00;;;22.50;99.90;;;;;;5051600;28;20177;-59
2023/09/01 09:31:04;;;;;;;0.00;0.00;;;22.40;99.90;;;;;;5051430;28;20239;-59
2023/09/01 09:33:32;;;;;;;0.00;0.00;;;22.30;99.90;;;;;;5051487;28;20282;-59
2023/09/01 09:35:59;;;;;;;0.00;0.00;;;22.20;99.90;;;;;;5051370;28;20234;-59
2023/09/01 09:38:39;;;;;;;0.00;0.00;;;22.10;99.90;;;;;;5051381;28;20178;-59
2023/09/01 09:41:05;;;;;;;0.00;0.00;;;22.10;99.90;;;;;;5051557;28;20188;-58
2023/09/01 09:43:45;;;;;;;0.00;0.00;;;22.10;99.90;;;;;;5051471;28;20186;-59
2023/09/01 09:46:11;;;;;;;0.00;0.00;;;22.20;99.90;;;;;;5051308;28;20184;-59
2023/09/01 09:48:38;;;;;;;0.00;0.00;;;22.20;99.90;;;;;;5050911;28;20177;-58
2023/09/01 09:51:08;;;;;;;0.00;0.00;;;22.30;99.90;;;;;;5050959;28;20173;-59
2023/09/01 09:53:38;;;;;;;0.00;0.00;;;22.30;99.90;;;;;;5051198;28;20208;-59
2023/09/01 09:56:19;;;;;;;0.00;0.00;;;22.40;99.90;;;;;;5051306;28;20181;-59
2023/09/01 09:58:47;;;;;;;0.00;0.00;;;22.40;99.90;;;;;;5051266;28;20181;-58
2023/09/01 10:01:21;;;;;;;0.00;0.00;;;22.50;99.90;;;;;;5049920;28;20177;-59
2023/09/01 10:03:49;;;;;;;0.00;0.00;;;22.60;99.90;;;;;;5051168;28;20196;-58
2023/09/01 10:06:17;;;;;;;0.00;0.00;;;22.40;99.90;;;;;;5051001;28;20178;-58
2023/09/01 10:08:44;;;;;;;0.10;0.10;;;22.30;99.90;;;;;;5051010;28;20185;-58
2023/09/01 10:11:10;;;;;;;0.00;0.00;;;22.10;99.90;;;;;;5051021;28;20687;-59
2023/09/01 10:13:38;;;;;;;0.00;0.00;;;22.00;99.90;;;;;;5051072;28;20595;-58
2023/09/01 10:16:04;;;;;;;0.00;0.00;;;21.90;99.90;;;;;;5051091;28;20185;-58
2023/09/01 10:18:30;;;;;;;0.00;0.00;;;21.70;99.90;;;;;;5050828;28;20185;-58
2023/09/01 10:20:56;;;;;;;0.00;0.00;;;21.70;99.90;;;;;;5050875;28;20231;-58
2023/09/01 10:23:21;;;;;;;0.00;0.00;;;21.70;99.90;;;;;;5050617;28;20537;-58
2023/09/01 10:26:16;;;;;;;0.00;0.00;;;21.70;99.90;;;;;;5050912;28;20181;-58
2023/09/01 10:29:05;;;;;;;0.00;0.00;;;21.60;99.90;;;;;;5050897;28;20181;-58
2023/09/01 10:31:33;;;;;;;0.00;0.00;;;21.60;99.90;;;;;;5045218;28;20688;-58
2023/09/01 10:34:15;;;;;;;0.00;0.00;;;21.70;99.90;;;;;;5049386;28;20692;-58
2023/09/01 10:36:42;;;;;;;0.00;0.00;;;21.70;99.90;;;;;;5051008;28;20184;-59
2023/09/01 10:39:16;;;;;;;0.00;0.00;;;21.80;99.90;;;;;;5050844;28;20196;-59
2023/09/01 10:41:50;;;;;;;0.00;0.00;;;21.70;99.90;;;;;;5050774;28;20180;-59
2023/09/01 10:44:16;;;;;;;0.00;0.00;;;21.60;99.90;;;;;;5050695;28;20653;-60
2023/09/01 10:46:41;;;;;;;0.03;0.03;;;21.60;99.90;;;;;;5050840;28;20212;-59
2023/09/01 10:49:09;;;;;;;0.00;0.00;;;21.60;99.90;;;;;;5050738;28;20256;-60
2023/09/01 10:51:39;;;;;;;0.00;0.00;;;21.60;99.90;;;;;;5050786;28;20179;-59
2023/09/01 10:54:14;;;;;;;0.00;0.00;;;21.70;99.90;;;;;;5050509;28;20692;-60
2023/09/01 10:56:57;;;;;;;0.00;0.00;;;21.70;99.90;;;;;;5050687;28;20177;-60
2023/09/01 10:59:35;;;;;;;0.00;0.00;;;21.80;99.90;;;;;;5050550;28;20213;-60
2023/09/01 11:02:20;;;;;;;0.00;0.00;;;21.90;99.90;;;;;;5053613;28;20185;-60
2023/09/01 11:04:46;;;;;;;0.00;0.00;;;21.90;99.90;;;;;;5054507;28;20192;-60
2023/09/01 11:07:13;;;;;;;0.00;0.00;;;21.90;99.90;;;;;;5054370;28;20173;-59
2023/09/01 11:09:44;;;;;;;0.00;0.00;;;22.00;99.90;;;;;;5054282;28;20653;-60
2023/09/01 11:12:11;;;;;;;0.00;0.00;;;22.10;99.90;;;;;;5054315;28;20182;-60
2023/09/01 11:14:39;;;;;;;0.00;0.00;;;22.30;99.90;;;;;;5054413;28;20248;-59
2023/09/01 11:17:05;;;;;;;0.00;0.00;;;22.40;99.90;;;;;;5054241;28;20161;-59
2023/09/01 11:19:34;;;;;;;0.00;0.00;;;22.40;99.90;;;;;;5054250;28;20236;-60
2023/09/01 11:22:00;;;;;;;0.00;0.00;;;22.30;99.90;;;;;;5053983;28;20170;-60
2023/09/01 11:24:25;;;;;;;0.00;0.00;;;22.30;99.90;;;;;;5054073;28;20545;-60
2023/09/01 11:26:52;;;;;;;0.00;0.00;;;22.40;99.90;;;;;;5054126;28;20181;-59
2023/09/01 11:29:19;;;;;;;0.00;0.00;;;22.40;99.90;;;;;;5053916;28;20174;-59
2023/09/01 11:31:44;;;;;;;0.00;0.00;;;22.40;99.90;;;;;;5053843;28;20236;-60
2023/09/01 11:34:10;;;;;;;0.00;0.00;;;22.50;99.90;;;;;;5053678;28;20213;-60
2023/09/01 11:36:52;;;;;;;0.00;0.00;;;22.50;99.90;;;;;;5053716;28;20706;-60
2023/09/01 11:39:18;;;;;;;0.00;0.00;;;22.70;99.90;;;;;;5053470;28;20660;-60
2023/09/01 11:41:45;;;;;;;0.00;0.00;;;23.10;99.90;;;;;;5053774;28;20216;-60
2023/09/01 11:44:11;;;;;;;0.00;0.00;;;23.40;99.90;;;;;;5053543;28;20257;-60
2023/09/01 11:46:37;;;;;;;0.00;0.00;;;23.70;99.90;;;;;;5053601;28;20610;-60
2023/09/01 11:49:04;;;;;;;1.25;0.80;;;23.90;99.90;;;;;;5053496;28;20179;-59
2023/09/01 11:51:31;;;;;;;0.00;0.00;;;24.20;99.90;;;;;;5053499;28;20166;-60
2023/09/01 11:53:56;;;;;;;0.00;0.00;;;24.50;99.90;;;;;;5053362;28;20220;-60
2023/09/01 11:56:22;;;;;;;0.00;0.00;;;24.60;99.90;;;;;;5053179;28;20182;-60
2023/09/01 11:58:50;;;;;;;0.00;0.00;;;24.70;99.90;;;;;;5053410;28;20178;-60
2023/09/01 12:01:18;;;;;;;0.00;0.00;;;24.90;99.90;;;;;;5053313;28;20177;-59
2023/09/01 12:03:49;;;;;;;0.00;0.00;;;24.60;99.90;;;;;;5053362;28;20181;-59
2023/09/01 12:06:16;;;;;;;0.00;0.00;;;24.30;99.90;;;;;;5053108;28;20170;-60
2023/09/01 12:08:42;;;;;;;0.00;0.00;;;24.20;99.90;;;;;;5053115;28;20173;-59
2023/09/01 12:11:07;;;;;;;0.00;0.00;;;24.20;99.90;;;;;;5053007;28;20181;-59
2023/09/01 12:13:33;;;;;;;0.00;0.00;;;24.30;99.90;;;;;;5052102;28;20247;-59
2023/09/01 12:16:00;;;;;;;0.00;0.00;;;24.40;99.90;;;;;;5052824;28;20178;-60
2023/09/01 12:18:39;;;;;;;0.00;0.00;;;24.60;99.90;;;;;;5052829;28;20208;-60
2023/09/01 12:21:06;;;;;;;0.00;0.00;;;24.80;99.90;;;;;;5052958;28;20314;-59
2023/09/01 12:23:34;;;;;;;0.00;0.00;;;25.00;99.90;;;;;;5053028;28;20184;-59
2023/09/01 12:26:01;;;;;;;0.00;0.00;;;25.10;99.90;;;;;;5052715;28;20170;-59
2023/09/01 12:28:28;;;;;;;0.00;0.00;;;25.20;99.90;;;;;;5052735;28;20262;-59
2023/09/01 12:30:55;;;;;;;0.00;0.00;;;25.00;99.90;;;;;;5052548;28;20222;-60
2023/09/01 12:33:21;;;;;;;0.00;0.00;;;24.90;99.90;;;;;;5052424;28;20220;-60
2023/09/01 12:35:46;;;;;;;0.00;0.00;;;24.80;99.90;;;;;;5052769;28;20243;-60
2023/09/01 12:38:12;;;;;;;0.00;0.00;;;24.60;99.90;;;;;;5052582;28;20182;-59
2023/09/01 12:40:37;;;;;;;0.00;0.00;;;24.40;99.90;;;;;;5052629;28;20260;-59
2023/09/01 12:43:03;;;;;;;0.00;0.00;;;24.20;99.90;;;;;;5052555;28;20182;-59
2023/09/01 12:45:29;;;;;;;0.00;0.00;;;24.40;99.90;;;;;;5052588;28;20192;-60
2023/09/01 12:47:55;;;;;;;0.00;0.00;;;24.10;99.90;;;;;;5052607;28;20181;-59